sensor_id;sensor_type;location;lat;lon;timestamp;temperature;humidity
7447;DHT22;3765;47.962;7.952;2022-07-25T00:02:26;21.50;58.60
7447;DHT22;3765;47.962;7.952;2022-07-25T00:04:54;21.40;58.60
7447;DHT22;3765;47.962;7.952;2022-07-25T00:07:24;21.50;58.70
7447;DHT22;3765;47.962;7.952;2022-07-25T00:09:54;21.40;58.70
7447;DHT22;3765;47.962;7.952;2022-07-25T00:12:23;21.40;58.80
7447;DHT22;3765;47.962;7.952;2022-07-25T00:14:51;21.30;58.80
7447;DHT22;3765;47.962;7.952;2022-07-25T00:17:19;21.30;58.90
7447;DHT22;3765;47.962;7.952;2022-07-25T00:19:48;21.30;58.90
7447;DHT22;3765;47.962;7.952;2022-07-25T00:22:16;21.30;59.00
7447;DHT22;3765;47.962;7.952;2022-07-25T00:24:45;21.20;59.10
7447;DHT22;3765;47.962;7.952;2022-07-25T00:27:15;21.20;59.20
7447;DHT22;3765;47.962;7.952;2022-07-25T00:29:43;21.10;59.20
7447;DHT22;3765;47.962;7.952;2022-07-25T00:32:11;21.10;59.30
7447;DHT22;3765;47.962;7.952;2022-07-25T00:34:39;21.00;59.40
7447;DHT22;3765;47.962;7.952;2022-07-25T00:37:08;21.00;59.40
7447;DHT22;3765;47.962;7.952;2022-07-25T00:39:36;20.90;59.50
7447;DHT22;3765;47.962;7.952;2022-07-25T00:42:04;20.90;59.60
7447;DHT22;3765;47.962;7.952;2022-07-25T00:44:34;20.90;59.60
7447;DHT22;3765;47.962;7.952;2022-07-25T00:47:02;20.90;59.60
7447;DHT22;3765;47.962;7.952;2022-07-25T00:49:31;20.90;59.60
7447;DHT22;3765;47.962;7.952;2022-07-25T00:51:59;20.90;59.70
7447;DHT22;3765;47.962;7.952;2022-07-25T00:54:28;20.90;59.70
7447;DHT22;3765;47.962;7.952;2022-07-25T00:56:56;20.80;59.90
7447;DHT22;3765;47.962;7.952;2022-07-25T00:59:24;20.80;60.00
7447;DHT22;3765;47.962;7.952;2022-07-25T01:01:54;20.80;60.00
7447;DHT22;3765;47.962;7.952;2022-07-25T01:04:22;20.80;60.20
7447;DHT22;3765;47.962;7.952;2022-07-25T01:06:50;20.70;60.40
7447;DHT22;3765;47.962;7.952;2022-07-25T01:09:19;20.60;60.50
7447;DHT22;3765;47.962;7.952;2022-07-25T01:11:48;20.60;60.60
7447;DHT22;3765;47.962;7.952;2022-07-25T01:14:16;20.50;60.60
7447;DHT22;3765;47.962;7.952;2022-07-25T01:16:44;20.50;60.70
7447;DHT22;3765;47.962;7.952;2022-07-25T01:19:16;20.50;60.80
7447;DHT22;3765;47.962;7.952;2022-07-25T01:21:45;20.40;60.90
7447;DHT22;3765;47.962;7.952;2022-07-25T01:24:13;20.40;61.00
7447;DHT22;3765;47.962;7.952;2022-07-25T01:26:43;20.40;61.00
7447;DHT22;3765;47.962;7.952;2022-07-25T01:29:13;20.40;61.10
7447;DHT22;3765;47.962;7.952;2022-07-25T01:31:45;20.40;61.10
7447;DHT22;3765;47.962;7.952;2022-07-25T01:34:16;20.40;61.10
7447;DHT22;3765;47.962;7.952;2022-07-25T01:36:49;20.40;61.10
7447;DHT22;3765;47.962;7.952;2022-07-25T01:39:21;20.40;61.10
7447;DHT22;3765;47.962;7.952;2022-07-25T01:41:51;20.40;61.20
7447;DHT22;3765;47.962;7.952;2022-07-25T01:44:20;20.30;61.30
7447;DHT22;3765;47.962;7.952;2022-07-25T01:46:50;20.30;61.30
7447;DHT22;3765;47.962;7.952;2022-07-25T01:49:24;20.30;61.30
7447;DHT22;3765;47.962;7.952;2022-07-25T01:51:56;20.30;61.40
7447;DHT22;3765;47.962;7.952;2022-07-25T01:54:25;20.30;61.50
7447;DHT22;3765;47.962;7.952;2022-07-25T01:56:54;20.20;61.50
7447;DHT22;3765;47.962;7.952;2022-07-25T01:59:24;20.10;61.60
7447;DHT22;3765;47.962;7.952;2022-07-25T02:01:56;20.00;61.70
7447;DHT22;3765;47.962;7.952;2022-07-25T02:04:25;20.10;61.80
7447;DHT22;3765;47.962;7.952;2022-07-25T02:07:00;20.00;61.90
7447;DHT22;3765;47.962;7.952;2022-07-25T02:09:33;20.00;62.10
7447;DHT22;3765;47.962;7.952;2022-07-25T02:12:03;20.00;62.10
7447;DHT22;3765;47.962;7.952;2022-07-25T02:14:33;20.00;62.20
7447;DHT22;3765;47.962;7.952;2022-07-25T02:17:05;20.10;62.20
7447;DHT22;3765;47.962;7.952;2022-07-25T02:19:38;20.00;62.30
7447;DHT22;3765;47.962;7.952;2022-07-25T02:22:09;20.10;62.30
7447;DHT22;3765;47.962;7.952;2022-07-25T02:24:37;20.00;62.30
7447;DHT22;3765;47.962;7.952;2022-07-25T02:27:08;20.00;62.30
7447;DHT22;3765;47.962;7.952;2022-07-25T02:29:41;20.00;62.40
7447;DHT22;3765;47.962;7.952;2022-07-25T02:32:11;20.00;62.40
7447;DHT22;3765;47.962;7.952;2022-07-25T02:34:46;20.10;62.30
7447;DHT22;3765;47.962;7.952;2022-07-25T02:37:19;20.00;62.40
7447;DHT22;3765;47.962;7.952;2022-07-25T02:39:49;20.10;62.50
7447;DHT22;3765;47.962;7.952;2022-07-25T02:42:22;20.10;62.60
7447;DHT22;3765;47.962;7.952;2022-07-25T02:44:53;20.00;62.70
7447;DHT22;3765;47.962;7.952;2022-07-25T02:47:22;20.00;62.80
7447;DHT22;3765;47.962;7.952;2022-07-25T02:49:52;19.90;62.90
7447;DHT22;3765;47.962;7.952;2022-07-25T02:52:36;19.80;63.10
7447;DHT22;3765;47.962;7.952;2022-07-25T02:55:08;19.80;63.20
7447;DHT22;3765;47.962;7.952;2022-07-25T02:57:47;19.80;63.20
7447;DHT22;3765;47.962;7.952;2022-07-25T03:00:18;19.80;63.30
7447;DHT22;3765;47.962;7.952;2022-07-25T03:02:49;19.80;63.40
7447;DHT22;3765;47.962;7.952;2022-07-25T03:05:19;19.80;63.50
7447;DHT22;3765;47.962;7.952;2022-07-25T03:07:51;19.80;63.40
7447;DHT22;3765;47.962;7.952;2022-07-25T03:10:21;19.80;63.50
7447;DHT22;3765;47.962;7.952;2022-07-25T03:12:52;19.80;63.50
7447;DHT22;3765;47.962;7.952;2022-07-25T03:15:20;19.80;63.50
7447;DHT22;3765;47.962;7.952;2022-07-25T03:17:52;19.80;63.50
7447;DHT22;3765;47.962;7.952;2022-07-25T03:20:24;19.80;63.50
7447;DHT22;3765;47.962;7.952;2022-07-25T03:22:57;19.80;63.70
7447;DHT22;3765;47.962;7.952;2022-07-25T03:25:44;19.80;63.70
7447;DHT22;3765;47.962;7.952;2022-07-25T03:28:16;19.60;63.80
7447;DHT22;3765;47.962;7.952;2022-07-25T03:30:45;19.60;63.90
7447;DHT22;3765;47.962;7.952;2022-07-25T03:33:17;19.50;64.00
7447;DHT22;3765;47.962;7.952;2022-07-25T03:35:45;19.50;64.10
7447;DHT22;3765;47.962;7.952;2022-07-25T03:38:35;19.50;64.20
7447;DHT22;3765;47.962;7.952;2022-07-25T03:41:07;19.50;64.20
7447;DHT22;3765;47.962;7.952;2022-07-25T03:43:36;19.40;64.30
7447;DHT22;3765;47.962;7.952;2022-07-25T03:46:16;19.40;64.50
7447;DHT22;3765;47.962;7.952;2022-07-25T03:48:46;19.40;64.50
7447;DHT22;3765;47.962;7.952;2022-07-25T03:51:25;19.40;64.70
7447;DHT22;3765;47.962;7.952;2022-07-25T03:53:57;19.40;64.70
7447;DHT22;3765;47.962;7.952;2022-07-25T03:56:37;19.40;64.80
7447;DHT22;3765;47.962;7.952;2022-07-25T03:59:10;19.40;64.90
7447;DHT22;3765;47.962;7.952;2022-07-25T04:01:46;19.30;65.00
7447;DHT22;3765;47.962;7.952;2022-07-25T04:04:18;19.30;65.10
7447;DHT22;3765;47.962;7.952;2022-07-25T04:06:51;19.30;65.10
7447;DHT22;3765;47.962;7.952;2022-07-25T04:09:23;19.30;65.00
7447;DHT22;3765;47.962;7.952;2022-07-25T04:11:56;19.30;65.20
7447;DHT22;3765;47.962;7.952;2022-07-25T04:14:26;19.30;65.20
7447;DHT22;3765;47.962;7.952;2022-07-25T04:16:57;19.30;65.30
7447;DHT22;3765;47.962;7.952;2022-07-25T04:19:26;19.30;65.30
7447;DHT22;3765;47.962;7.952;2022-07-25T04:21:56;19.20;65.60
7447;DHT22;3765;47.962;7.952;2022-07-25T04:24:25;19.30;65.70
7447;DHT22;3765;47.962;7.952;2022-07-25T04:26:55;19.30;65.80
7447;DHT22;3765;47.962;7.952;2022-07-25T04:29:23;19.30;65.80
7447;DHT22;3765;47.962;7.952;2022-07-25T04:31:51;19.40;65.90
7447;DHT22;3765;47.962;7.952;2022-07-25T04:34:20;19.40;65.90
7447;DHT22;3765;47.962;7.952;2022-07-25T04:36:51;19.40;65.90
7447;DHT22;3765;47.962;7.952;2022-07-25T04:39:21;19.50;65.70
7447;DHT22;3765;47.962;7.952;2022-07-25T04:41:51;19.50;65.80
7447;DHT22;3765;47.962;7.952;2022-07-25T04:44:21;19.60;65.80
7447;DHT22;3765;47.962;7.952;2022-07-25T04:46:53;19.60;65.70
7447;DHT22;3765;47.962;7.952;2022-07-25T04:49:26;19.70;65.80
7447;DHT22;3765;47.962;7.952;2022-07-25T04:51:58;19.80;65.70
7447;DHT22;3765;47.962;7.952;2022-07-25T04:54:28;19.90;65.60
7447;DHT22;3765;47.962;7.952;2022-07-25T04:56:58;20.00;65.50
7447;DHT22;3765;47.962;7.952;2022-07-25T04:59:29;20.10;65.40
7447;DHT22;3765;47.962;7.952;2022-07-25T05:01:58;20.20;65.40
7447;DHT22;3765;47.962;7.952;2022-07-25T05:04:33;20.30;65.40
7447;DHT22;3765;47.962;7.952;2022-07-25T05:07:10;20.30;65.40
7447;DHT22;3765;47.962;7.952;2022-07-25T05:09:42;20.50;65.30
7447;DHT22;3765;47.962;7.952;2022-07-25T05:12:15;20.60;65.20
7447;DHT22;3765;47.962;7.952;2022-07-25T05:14:46;20.70;65.10
7447;DHT22;3765;47.962;7.952;2022-07-25T05:17:18;20.80;64.90
7447;DHT22;3765;47.962;7.952;2022-07-25T05:19:46;21.00;64.80
7447;DHT22;3765;47.962;7.952;2022-07-25T05:22:14;21.00;64.70
7447;DHT22;3765;47.962;7.952;2022-07-25T05:24:46;21.20;64.50
7447;DHT22;3765;47.962;7.952;2022-07-25T05:27:18;21.30;64.40
7447;DHT22;3765;47.962;7.952;2022-07-25T05:29:48;21.40;64.20
7447;DHT22;3765;47.962;7.952;2022-07-25T05:32:18;21.60;64.10
7447;DHT22;3765;47.962;7.952;2022-07-25T05:34:50;21.80;63.90
7447;DHT22;3765;47.962;7.952;2022-07-25T05:37:19;21.80;63.80
7447;DHT22;3765;47.962;7.952;2022-07-25T05:39:50;22.00;63.80
7447;DHT22;3765;47.962;7.952;2022-07-25T05:42:20;22.10;63.70
7447;DHT22;3765;47.962;7.952;2022-07-25T05:44:49;22.30;63.70
7447;DHT22;3765;47.962;7.952;2022-07-25T05:47:17;22.30;63.50
7447;DHT22;3765;47.962;7.952;2022-07-25T05:49:47;22.40;63.50
7447;DHT22;3765;47.962;7.952;2022-07-25T05:52:15;22.60;63.40
7447;DHT22;3765;47.962;7.952;2022-07-25T05:54:53;22.80;63.30
7447;DHT22;3765;47.962;7.952;2022-07-25T05:57:39;22.80;63.20
7447;DHT22;3765;47.962;7.952;2022-07-25T06:00:11;23.00;63.10
7447;DHT22;3765;47.962;7.952;2022-07-25T06:02:39;23.10;62.80
7447;DHT22;3765;47.962;7.952;2022-07-25T06:05:11;23.30;62.50
7447;DHT22;3765;47.962;7.952;2022-07-25T06:07:42;23.40;62.20
7447;DHT22;3765;47.962;7.952;2022-07-25T06:10:14;23.70;61.80
7447;DHT22;3765;47.962;7.952;2022-07-25T06:12:43;23.80;61.40
7447;DHT22;3765;47.962;7.952;2022-07-25T06:15:27;23.90;60.90
7447;DHT22;3765;47.962;7.952;2022-07-25T06:18:11;24.20;60.40
7447;DHT22;3765;47.962;7.952;2022-07-25T06:20:43;24.40;59.90
7447;DHT22;3765;47.962;7.952;2022-07-25T06:23:12;24.70;59.50
7447;DHT22;3765;47.962;7.952;2022-07-25T06:25:40;24.70;59.30
7447;DHT22;3765;47.962;7.952;2022-07-25T06:28:18;24.90;58.90
7447;DHT22;3765;47.962;7.952;2022-07-25T06:30:48;25.10;58.30
7447;DHT22;3765;47.962;7.952;2022-07-25T06:33:16;25.20;58.20
7447;DHT22;3765;47.962;7.952;2022-07-25T06:35:44;25.40;57.80
7447;DHT22;3765;47.962;7.952;2022-07-25T06:38:13;25.50;57.70
7447;DHT22;3765;47.962;7.952;2022-07-25T06:40:41;25.70;57.40
7447;DHT22;3765;47.962;7.952;2022-07-25T06:43:12;25.90;57.00
7447;DHT22;3765;47.962;7.952;2022-07-25T06:45:41;26.10;56.60
7447;DHT22;3765;47.962;7.952;2022-07-25T06:48:14;26.30;56.20
7447;DHT22;3765;47.962;7.952;2022-07-25T06:50:43;26.70;55.60
7447;DHT22;3765;47.962;7.952;2022-07-25T06:53:12;27.00;55.00
7447;DHT22;3765;47.962;7.952;2022-07-25T06:55:40;27.00;55.10
7447;DHT22;3765;47.962;7.952;2022-07-25T06:58:09;27.00;54.90
7447;DHT22;3765;47.962;7.952;2022-07-25T07:00:58;27.20;54.60
7447;DHT22;3765;47.962;7.952;2022-07-25T07:03:34;27.30;54.20
7447;DHT22;3765;47.962;7.952;2022-07-25T07:06:07;27.50;53.50
7447;DHT22;3765;47.962;7.952;2022-07-25T07:08:38;27.70;53.10
7447;DHT22;3765;47.962;7.952;2022-07-25T07:11:13;27.80;52.80
7447;DHT22;3765;47.962;7.952;2022-07-25T07:13:45;28.00;52.30
7447;DHT22;3765;47.962;7.952;2022-07-25T07:16:33;28.20;51.70
7447;DHT22;3765;47.962;7.952;2022-07-25T07:19:07;28.30;50.80
7447;DHT22;3765;47.962;7.952;2022-07-25T07:21:39;28.50;50.30
7447;DHT22;3765;47.962;7.952;2022-07-25T07:24:19;28.60;49.00
7447;DHT22;3765;47.962;7.952;2022-07-25T07:26:52;28.80;48.80
7447;DHT22;3765;47.962;7.952;2022-07-25T07:29:31;28.90;48.00
7447;DHT22;3765;47.962;7.952;2022-07-25T07:32:01;29.10;47.20
7447;DHT22;3765;47.962;7.952;2022-07-25T07:34:29;29.20;45.20
7447;DHT22;3765;47.962;7.952;2022-07-25T07:36:57;29.30;44.60
7447;DHT22;3765;47.962;7.952;2022-07-25T07:39:26;29.40;43.70
7447;DHT22;3765;47.962;7.952;2022-07-25T07:41:54;29.60;43.10
7447;DHT22;3765;47.962;7.952;2022-07-25T07:44:22;29.70;43.00
7447;DHT22;3765;47.962;7.952;2022-07-25T07:46:50;29.70;41.90
7447;DHT22;3765;47.962;7.952;2022-07-25T07:49:20;29.80;41.70
7447;DHT22;3765;47.962;7.952;2022-07-25T07:51:48;30.00;40.70
7447;DHT22;3765;47.962;7.952;2022-07-25T07:54:16;29.90;38.60
7447;DHT22;3765;47.962;7.952;2022-07-25T07:57:02;30.00;39.00
7447;DHT22;3765;47.962;7.952;2022-07-25T07:59:30;30.10;39.60
7447;DHT22;3765;47.962;7.952;2022-07-25T08:01:59;30.10;38.80
7447;DHT22;3765;47.962;7.952;2022-07-25T08:04:29;30.00;38.70
7447;DHT22;3765;47.962;7.952;2022-07-25T08:06:57;30.10;38.50
7447;DHT22;3765;47.962;7.952;2022-07-25T08:09:25;30.10;38.50
7447;DHT22;3765;47.962;7.952;2022-07-25T08:11:53;30.20;38.10
7447;DHT22;3765;47.962;7.952;2022-07-25T08:14:21;30.20;37.80
7447;DHT22;3765;47.962;7.952;2022-07-25T08:16:50;30.30;37.70
7447;DHT22;3765;47.962;7.952;2022-07-25T08:19:18;30.30;36.90
7447;DHT22;3765;47.962;7.952;2022-07-25T08:21:48;30.30;37.50
7447;DHT22;3765;47.962;7.952;2022-07-25T08:24:16;30.50;37.20
7447;DHT22;3765;47.962;7.952;2022-07-25T08:26:44;30.50;36.80
7447;DHT22;3765;47.962;7.952;2022-07-25T08:29:13;30.60;37.20
7447;DHT22;3765;47.962;7.952;2022-07-25T08:31:47;30.70;37.00
7447;DHT22;3765;47.962;7.952;2022-07-25T08:34:24;30.70;36.60
7447;DHT22;3765;47.962;7.952;2022-07-25T08:40:26;30.80;36.10
7447;DHT22;3765;47.962;7.952;2022-07-25T08:43:10;30.80;36.20
7447;DHT22;3765;47.962;7.952;2022-07-25T08:45:44;30.80;36.00
7447;DHT22;3765;47.962;7.952;2022-07-25T08:48:15;30.80;35.90
7447;DHT22;3765;47.962;7.952;2022-07-25T08:50:45;30.80;36.00
7447;DHT22;3765;47.962;7.952;2022-07-25T08:53:18;31.00;35.80
7447;DHT22;3765;47.962;7.952;2022-07-25T08:56:06;31.00;35.80
7447;DHT22;3765;47.962;7.952;2022-07-25T08:58:44;31.10;35.40
7447;DHT22;3765;47.962;7.952;2022-07-25T09:01:16;31.10;35.30
7447;DHT22;3765;47.962;7.952;2022-07-25T09:03:46;31.00;35.30
7447;DHT22;3765;47.962;7.952;2022-07-25T09:06:20;31.10;35.40
7447;DHT22;3765;47.962;7.952;2022-07-25T09:08:58;31.20;35.40
7447;DHT22;3765;47.962;7.952;2022-07-25T09:11:46;31.20;35.30
7447;DHT22;3765;47.962;7.952;2022-07-25T09:14:19;31.30;35.20
7447;DHT22;3765;47.962;7.952;2022-07-25T09:17:06;31.30;34.50
7447;DHT22;3765;47.962;7.952;2022-07-25T09:19:56;31.30;34.70
7447;DHT22;3765;47.962;7.952;2022-07-25T09:22:28;31.30;34.70
7447;DHT22;3765;47.962;7.952;2022-07-25T09:25:04;31.50;34.80
7447;DHT22;3765;47.962;7.952;2022-07-25T09:27:52;31.50;34.80
7447;DHT22;3765;47.962;7.952;2022-07-25T09:30:21;31.80;34.80
7447;DHT22;3765;47.962;7.952;2022-07-25T09:33:01;32.00;34.90
7447;DHT22;3765;47.962;7.952;2022-07-25T09:35:34;31.90;34.30
7447;DHT22;3765;47.962;7.952;2022-07-25T09:38:08;32.00;34.20
7447;DHT22;3765;47.962;7.952;2022-07-25T09:40:39;32.00;33.90
7447;DHT22;3765;47.962;7.952;2022-07-25T09:43:10;31.90;34.00
7447;DHT22;3765;47.962;7.952;2022-07-25T09:45:48;32.00;34.20
7447;DHT22;3765;47.962;7.952;2022-07-25T09:48:20;32.20;34.30
7447;DHT22;3765;47.962;7.952;2022-07-25T09:51:03;32.30;33.80
7447;DHT22;3765;47.962;7.952;2022-07-25T09:53:35;32.20;33.80
7447;DHT22;3765;47.962;7.952;2022-07-25T09:56:07;32.40;34.10
7447;DHT22;3765;47.962;7.952;2022-07-25T09:58:42;32.50;33.90
7447;DHT22;3765;47.962;7.952;2022-07-25T10:01:19;32.50;33.50
7447;DHT22;3765;47.962;7.952;2022-07-25T10:03:57;32.30;33.30
7447;DHT22;3765;47.962;7.952;2022-07-25T10:06:48;32.30;33.40
7447;DHT22;3765;47.962;7.952;2022-07-25T10:09:19;32.40;33.40
7447;DHT22;3765;47.962;7.952;2022-07-25T10:12:10;32.40;33.30
7447;DHT22;3765;47.962;7.952;2022-07-25T10:14:42;32.40;33.30
7447;DHT22;3765;47.962;7.952;2022-07-25T10:17:19;32.40;33.30
7447;DHT22;3765;47.962;7.952;2022-07-25T10:19:50;32.50;33.40
7447;DHT22;3765;47.962;7.952;2022-07-25T10:22:36;32.50;33.10
7447;DHT22;3765;47.962;7.952;2022-07-25T10:25:23;32.60;33.30
7447;DHT22;3765;47.962;7.952;2022-07-25T10:27:53;32.60;33.20
7447;DHT22;3765;47.962;7.952;2022-07-25T10:30:34;32.60;33.30
7447;DHT22;3765;47.962;7.952;2022-07-25T10:33:10;32.70;33.00
7447;DHT22;3765;47.962;7.952;2022-07-25T10:35:53;32.50;33.30
7447;DHT22;3765;47.962;7.952;2022-07-25T10:38:36;32.80;33.60
7447;DHT22;3765;47.962;7.952;2022-07-25T10:41:11;32.90;33.20
7447;DHT22;3765;47.962;7.952;2022-07-25T10:43:45;33.10;33.10
7447;DHT22;3765;47.962;7.952;2022-07-25T10:46:20;33.30;33.30
7447;DHT22;3765;47.962;7.952;2022-07-25T10:49:00;33.30;32.80
7447;DHT22;3765;47.962;7.952;2022-07-25T10:51:59;33.20;32.40
7447;DHT22;3765;47.962;7.952;2022-07-25T10:54:33;33.30;32.70
7447;DHT22;3765;47.962;7.952;2022-07-25T10:57:05;33.30;32.30
7447;DHT22;3765;47.962;7.952;2022-07-25T10:59:35;33.20;32.70
7447;DHT22;3765;47.962;7.952;2022-07-25T11:02:18;33.30;32.60
7447;DHT22;3765;47.962;7.952;2022-07-25T11:05:01;33.10;32.50
7447;DHT22;3765;47.962;7.952;2022-07-25T11:07:33;33.20;32.90
7447;DHT22;3765;47.962;7.952;2022-07-25T11:10:04;33.50;32.70
7447;DHT22;3765;47.962;7.952;2022-07-25T11:12:33;33.60;32.50
7447;DHT22;3765;47.962;7.952;2022-07-25T11:15:05;33.80;31.90
7447;DHT22;3765;47.962;7.952;2022-07-25T11:17:53;33.50;32.10
7447;DHT22;3765;47.962;7.952;2022-07-25T11:20:29;33.60;32.10
7447;DHT22;3765;47.962;7.952;2022-07-25T11:22:58;33.80;32.00
7447;DHT22;3765;47.962;7.952;2022-07-25T11:25:30;34.00;31.80
7447;DHT22;3765;47.962;7.952;2022-07-25T11:28:05;34.20;31.20
7447;DHT22;3765;47.962;7.952;2022-07-25T11:30:34;34.30;31.20
7447;DHT22;3765;47.962;7.952;2022-07-25T11:33:04;34.50;30.90
7447;DHT22;3765;47.962;7.952;2022-07-25T11:35:33;34.40;30.80
7447;DHT22;3765;47.962;7.952;2022-07-25T11:38:02;34.40;30.70
7447;DHT22;3765;47.962;7.952;2022-07-25T11:40:32;34.90;30.90
7447;DHT22;3765;47.962;7.952;2022-07-25T11:43:00;35.10;30.70
7447;DHT22;3765;47.962;7.952;2022-07-25T11:45:32;35.30;30.60
7447;DHT22;3765;47.962;7.952;2022-07-25T11:48:05;34.80;30.30
7447;DHT22;3765;47.962;7.952;2022-07-25T11:50:35;34.40;30.30
7447;DHT22;3765;47.962;7.952;2022-07-25T11:53:05;34.70;30.70
7447;DHT22;3765;47.962;7.952;2022-07-25T11:55:35;34.80;30.60
7447;DHT22;3765;47.962;7.952;2022-07-25T11:58:09;34.50;30.60
7447;DHT22;3765;47.962;7.952;2022-07-25T12:00:43;34.40;30.90
7447;DHT22;3765;47.962;7.952;2022-07-25T12:03:15;34.20;31.10
7447;DHT22;3765;47.962;7.952;2022-07-25T12:05:47;34.30;31.20
7447;DHT22;3765;47.962;7.952;2022-07-25T12:08:25;34.30;31.30
7447;DHT22;3765;47.962;7.952;2022-07-25T12:10:53;34.30;31.50
7447;DHT22;3765;47.962;7.952;2022-07-25T12:13:26;34.60;31.50
7447;DHT22;3765;47.962;7.952;2022-07-25T12:15:55;35.00;30.90
7447;DHT22;3765;47.962;7.952;2022-07-25T12:18:26;34.80;30.90
7447;DHT22;3765;47.962;7.952;2022-07-25T12:20:55;34.80;30.80
7447;DHT22;3765;47.962;7.952;2022-07-25T12:23:23;35.10;30.20
7447;DHT22;3765;47.962;7.952;2022-07-25T12:25:51;35.20;30.40
7447;DHT22;3765;47.962;7.952;2022-07-25T12:28:19;35.30;30.20
7447;DHT22;3765;47.962;7.952;2022-07-25T12:30:48;35.50;30.20
7447;DHT22;3765;47.962;7.952;2022-07-25T12:33:22;35.40;30.20
7447;DHT22;3765;47.962;7.952;2022-07-25T12:35:52;35.40;30.00
7447;DHT22;3765;47.962;7.952;2022-07-25T12:38:20;35.30;29.50
7447;DHT22;3765;47.962;7.952;2022-07-25T12:40:49;35.20;29.50
7447;DHT22;3765;47.962;7.952;2022-07-25T12:43:17;35.10;29.50
7447;DHT22;3765;47.962;7.952;2022-07-25T12:45:46;35.00;29.50
7447;DHT22;3765;47.962;7.952;2022-07-25T12:48:14;35.00;29.40
7447;DHT22;3765;47.962;7.952;2022-07-25T12:50:43;35.00;29.60
7447;DHT22;3765;47.962;7.952;2022-07-25T12:53:21;35.40;29.70
7447;DHT22;3765;47.962;7.952;2022-07-25T12:55:51;35.80;29.50
7447;DHT22;3765;47.962;7.952;2022-07-25T12:58:19;35.80;29.40
7447;DHT22;3765;47.962;7.952;2022-07-25T13:00:48;35.40;29.50
7447;DHT22;3765;47.962;7.952;2022-07-25T13:03:17;35.60;29.60
7447;DHT22;3765;47.962;7.952;2022-07-25T13:05:47;35.80;29.10
7447;DHT22;3765;47.962;7.952;2022-07-25T13:08:18;35.60;29.30
7447;DHT22;3765;47.962;7.952;2022-07-25T13:10:47;35.50;29.20
7447;DHT22;3765;47.962;7.952;2022-07-25T13:13:15;35.90;29.30
7447;DHT22;3765;47.962;7.952;2022-07-25T13:15:43;36.30;28.90
7447;DHT22;3765;47.962;7.952;2022-07-25T13:18:11;36.10;28.70
7447;DHT22;3765;47.962;7.952;2022-07-25T13:20:39;36.00;28.80
7447;DHT22;3765;47.962;7.952;2022-07-25T13:23:08;35.90;28.80
7447;DHT22;3765;47.962;7.952;2022-07-25T13:25:37;36.20;28.80
7447;DHT22;3765;47.962;7.952;2022-07-25T13:28:06;36.00;28.90
7447;DHT22;3765;47.962;7.952;2022-07-25T13:30:37;36.60;29.10
7447;DHT22;3765;47.962;7.952;2022-07-25T13:33:05;36.60;28.70
7447;DHT22;3765;47.962;7.952;2022-07-25T13:35:35;36.40;28.40
7447;DHT22;3765;47.962;7.952;2022-07-25T13:38:08;36.10;28.80
7447;DHT22;3765;47.962;7.952;2022-07-25T13:40:38;36.00;29.00
7447;DHT22;3765;47.962;7.952;2022-07-25T13:43:08;36.20;29.00
7447;DHT22;3765;47.962;7.952;2022-07-25T13:45:36;36.80;28.70
7447;DHT22;3765;47.962;7.952;2022-07-25T13:48:06;36.70;28.30
7447;DHT22;3765;47.962;7.952;2022-07-25T13:50:54;36.70;28.20
7447;DHT22;3765;47.962;7.952;2022-07-25T13:53:23;37.10;28.20
7447;DHT22;3765;47.962;7.952;2022-07-25T13:55:58;37.50;27.90
7447;DHT22;3765;47.962;7.952;2022-07-25T13:58:27;37.30;28.00
7447;DHT22;3765;47.962;7.952;2022-07-25T14:00:55;37.40;27.70
7447;DHT22;3765;47.962;7.952;2022-07-25T14:03:24;37.50;27.50
7447;DHT22;3765;47.962;7.952;2022-07-25T14:05:52;37.60;27.50
7447;DHT22;3765;47.962;7.952;2022-07-25T14:08:20;37.50;27.50
7447;DHT22;3765;47.962;7.952;2022-07-25T14:10:48;37.70;27.50
7447;DHT22;3765;47.962;7.952;2022-07-25T14:13:18;37.90;27.40
7447;DHT22;3765;47.962;7.952;2022-07-25T14:15:47;37.80;27.20
7447;DHT22;3765;47.962;7.952;2022-07-25T14:18:15;37.50;27.10
7447;DHT22;3765;47.962;7.952;2022-07-25T14:20:43;37.90;26.90
7447;DHT22;3765;47.962;7.952;2022-07-25T14:23:12;37.50;27.00
7447;DHT22;3765;47.962;7.952;2022-07-25T14:25:40;37.40;27.00
7447;DHT22;3765;47.962;7.952;2022-07-25T14:28:09;37.30;27.10
7447;DHT22;3765;47.962;7.952;2022-07-25T14:30:39;37.80;26.90
7447;DHT22;3765;47.962;7.952;2022-07-25T14:33:07;37.70;26.80
7447;DHT22;3765;47.962;7.952;2022-07-25T14:35:36;37.10;26.70
7447;DHT22;3765;47.962;7.952;2022-07-25T14:38:04;36.80;27.30
7447;DHT22;3765;47.962;7.952;2022-07-25T14:40:33;36.70;27.50
7447;DHT22;3765;47.962;7.952;2022-07-25T14:43:02;37.20;27.30
7447;DHT22;3765;47.962;7.952;2022-07-25T14:45:31;37.40;27.40
7447;DHT22;3765;47.962;7.952;2022-07-25T14:48:01;37.20;27.50
7447;DHT22;3765;47.962;7.952;2022-07-25T14:50:29;37.20;27.80
7447;DHT22;3765;47.962;7.952;2022-07-25T14:52:57;36.80;27.90
7447;DHT22;3765;47.962;7.952;2022-07-25T14:55:26;36.30;28.10
7447;DHT22;3765;47.962;7.952;2022-07-25T14:57:54;35.80;28.60
7447;DHT22;3765;47.962;7.952;2022-07-25T15:00:23;35.50;29.00
7447;DHT22;3765;47.962;7.952;2022-07-25T15:02:55;35.20;29.30
7447;DHT22;3765;47.962;7.952;2022-07-25T15:05:25;35.00;29.60
7447;DHT22;3765;47.962;7.952;2022-07-25T15:07:53;34.80;29.90
7447;DHT22;3765;47.962;7.952;2022-07-25T15:10:22;34.80;30.20
7447;DHT22;3765;47.962;7.952;2022-07-25T15:12:50;35.20;30.10
7447;DHT22;3765;47.962;7.952;2022-07-25T15:15:38;35.20;30.10
7447;DHT22;3765;47.962;7.952;2022-07-25T15:18:06;35.20;30.20
7447;DHT22;3765;47.962;7.952;2022-07-25T15:20:41;35.30;30.20
7447;DHT22;3765;47.962;7.952;2022-07-25T15:23:09;35.10;30.10
7447;DHT22;3765;47.962;7.952;2022-07-25T15:25:37;34.70;30.50
7447;DHT22;3765;47.962;7.952;2022-07-25T15:28:25;34.40;30.70
7447;DHT22;3765;47.962;7.952;2022-07-25T15:30:54;34.30;30.90
7447;DHT22;3765;47.962;7.952;2022-07-25T15:33:22;34.00;31.10
7447;DHT22;3765;47.962;7.952;2022-07-25T15:35:53;33.70;31.50
7447;DHT22;3765;47.962;7.952;2022-07-25T15:38:22;33.60;31.70
7447;DHT22;3765;47.962;7.952;2022-07-25T15:40:50;33.60;31.90
7447;DHT22;3765;47.962;7.952;2022-07-25T15:43:19;33.70;32.00
7447;DHT22;3765;47.962;7.952;2022-07-25T15:45:47;33.50;32.20
7447;DHT22;3765;47.962;7.952;2022-07-25T15:48:16;33.30;32.40
7447;DHT22;3765;47.962;7.952;2022-07-25T15:50:46;33.30;32.60
7447;DHT22;3765;47.962;7.952;2022-07-25T15:53:16;33.00;32.90
7447;DHT22;3765;47.962;7.952;2022-07-25T15:55:44;33.10;33.00
7447;DHT22;3765;47.962;7.952;2022-07-25T15:58:12;33.60;33.00
7447;DHT22;3765;47.962;7.952;2022-07-25T16:00:41;33.40;32.70
7447;DHT22;3765;47.962;7.952;2022-07-25T16:03:10;33.30;32.80
7447;DHT22;3765;47.962;7.952;2022-07-25T16:05:40;33.30;32.90
7447;DHT22;3765;47.962;7.952;2022-07-25T16:08:09;33.30;33.00
7447;DHT22;3765;47.962;7.952;2022-07-25T16:10:44;33.10;33.40
7447;DHT22;3765;47.962;7.952;2022-07-25T16:13:17;32.90;33.70
7447;DHT22;3765;47.962;7.952;2022-07-25T16:15:46;32.80;34.00
7447;DHT22;3765;47.962;7.952;2022-07-25T16:18:19;32.80;34.00
7447;DHT22;3765;47.962;7.952;2022-07-25T16:20:55;32.80;34.10
7447;DHT22;3765;47.962;7.952;2022-07-25T16:23:25;32.50;34.10
7447;DHT22;3765;47.962;7.952;2022-07-25T16:25:55;32.40;34.40
7447;DHT22;3765;47.962;7.952;2022-07-25T16:28:24;32.40;34.60
7447;DHT22;3765;47.962;7.952;2022-07-25T16:30:52;32.50;34.70
7447;DHT22;3765;47.962;7.952;2022-07-25T16:33:21;32.30;34.90
7447;DHT22;3765;47.962;7.952;2022-07-25T16:35:49;32.20;34.60